Time;durP1;ratioP1;P1;durP2;ratioP2;P2;SDS_P1;SDS_P2;PMS_P1;PMS_P2;Temp;Humidity;BMP_temperature;BMP_pressure;BME280_temperature;BME280_humidity;BME280_pressure;Samples;Min_cycle;Max_cycle;Signal;HPM_P1;HPM_P2
2022/09/28 00:00:27;;;;;;;;;;;;;;;7.61;100.00;99418.38;1041679;28;19921;-77
2022/09/28 00:01:04;;;;;;;;;;;;;;;7.61;100.00;99426.31;1038346;28;20003;-78
2022/09/28 00:01:35;;;;;;;;;;;;;;;7.59;100.00;99417.78;1045283;28;19990;-77
2022/09/28 00:02:07;;;;;;;;;;;;;;;7.57;100.00;99414.56;1046337;28;19959;-77
2022/09/28 00:02:39;;;;;;;;;;;;;;;7.57;100.00;99416.41;1044434;28;19986;-77
2022/09/28 00:03:11;;;;;;;;;;;;;;;7.56;100.00;99414.81;1047295;28;19921;-77
2022/09/28 00:03:43;;;;;;;;;;;;;;;7.57;100.00;99419.88;1042155;28;19924;-77
2022/09/28 00:04:15;;;;;;;;;;;;;;;7.56;100.00;99415.63;1044489;28;20391;-77
2022/09/28 00:04:46;;;;;;;;;;;;;;;7.53;100.00;99416.06;1047570;28;19956;-77
2022/09/28 00:05:18;;;;;;;;;;;;;;;7.53;100.00;99415.28;1044992;28;19921;-77
2022/09/28 00:05:49;;;;;;;;;;;;;;;7.49;100.00;99417.59;1045461;28;19920;-77
2022/09/28 00:06:22;;;;;;;;;;;;;;;7.53;100.00;99423.22;1041470;28;19980;-77
2022/09/28 00:06:53;;;;;;;;;;;;;;;7.49;100.00;99414.94;1038172;28;19972;-77
2022/09/28 00:07:25;;;;;;;;;;;;;;;7.51;100.00;99420.00;1036513;28;19926;-77
2022/09/28 00:07:57;;;;;;;;;;;;;;;7.48;100.00;99415.97;1038564;28;19975;-77
2022/09/28 00:08:28;;;;;;;;;;;;;;;7.53;100.00;99410.78;1042780;28;21252;-77
2022/09/28 00:09:00;;;;;;;;;;;;;;;7.46;100.00;99423.34;1036256;28;19921;-77
2022/09/28 00:09:32;;;;;;;;;;;;;;;7.46;100.00;99418.03;1040511;28;19921;-77
2022/09/28 00:10:04;;;;;;;;;;;;;;;7.44;100.00;99414.81;1039921;28;20377;-77
2022/09/28 00:10:35;;;;;;;;;;;;;;;7.44;100.00;99417.47;1041359;28;20377;-77
2022/09/28 00:11:10;;;;;;;;;;;;;;;7.40;100.00;99424.28;1044526;28;19921;-77
2022/09/28 00:11:42;;;;;;;;;;;;;;;7.38;100.00;99418.38;1044370;28;19964;-77
2022/09/28 00:12:14;;;;;;;;;;;;;;;7.36;100.00;99418.59;1045718;28;20152;-77
2022/09/28 00:12:45;;;;;;;;;;;;;;;7.39;100.00;99423.44;1052535;28;19919;-77
2022/09/28 00:13:17;;;;;;;;;;;;;;;7.39;100.00;99419.97;1046555;28;19921;-77
2022/09/28 00:13:50;;;;;;;;;;;;;;;7.41;100.00;99417.94;1049842;28;20003;-77
2022/09/28 00:14:22;;;;;;;;;;;;;;;7.39;100.00;99417.31;1047893;28;19920;-77
2022/09/28 00:14:54;;;;;;;;;;;;;;;7.43;100.00;99418.50;1044769;28;19928;-77
2022/09/28 00:15:26;;;;;;;;;;;;;;;7.40;100.00;99425.06;1049930;28;19928;-77
2022/09/28 00:16:01;;;;;;;;;;;;;;;7.41;100.00;99416.09;1048364;28;19920;-77
2022/09/28 00:16:33;;;;;;;;;;;;;;;7.43;100.00;99418.50;1039154;28;20407;-77
2022/09/28 00:17:06;;;;;;;;;;;;;;;7.43;100.00;99416.66;1043301;28;20402;-77
2022/09/28 00:17:37;;;;;;;;;;;;;;;7.45;100.00;99416.44;1040371;28;19964;-77
2022/09/28 00:18:08;;;;;;;;;;;;;;;7.42;100.00;99416.91;1041051;28;20413;-77
2022/09/28 00:18:40;;;;;;;;;;;;;;;7.40;100.00;99416.31;1044609;28;19920;-77
2022/09/28 00:19:12;;;;;;;;;;;;;;;7.44;100.00;99409.53;1044219;28;19998;-77
2022/09/28 00:19:44;;;;;;;;;;;;;;;7.44;100.00;99417.47;1038521;28;19921;-77
2022/09/28 00:20:16;;;;;;;;;;;;;;;7.43;100.00;99416.66;1040219;28;20051;-77
2022/09/28 00:20:57;;;;;;;;;;;;;;;7.45;100.00;99403.19;1033410;28;19929;-77
2022/09/28 00:21:33;;;;;;;;;;;;;;;7.46;100.00;99412.75;1041927;28;19932;-77
2022/09/28 00:22:05;;;;;;;;;;;;;;;7.45;100.00;99411.13;1047641;28;20045;-77
2022/09/28 00:22:36;;;;;;;;;;;;;;;7.47;100.00;99413.56;1043367;28;19972;-77
2022/09/28 00:23:08;;;;;;;;;;;;;;;7.39;100.00;99412.03;1048510;28;19924;-77
2022/09/28 00:24:30;;;;;;;;;;;;;;;7.49;100.00;99406.19;1040332;28;20302;-77
2022/09/28 00:25:02;;;;;;;;;;;;;;;7.45;100.00;99411.13;1046826;28;19920;-77
2022/09/28 00:25:33;;;;;;;;;;;;;;;7.39;100.00;99412.03;1049855;28;19982;-77
2022/09/28 00:26:05;;;;;;;;;;;;;;;7.41;100.00;99413.44;1054050;28;19920;-77
2022/09/28 00:26:39;;;;;;;;;;;;;;;7.44;100.00;99409.53;1052070;28;19924;-77
2022/09/28 00:27:11;;;;;;;;;;;;;;;7.52;100.00;99406.53;1046921;28;19924;-77
2022/09/28 00:27:48;;;;;;;;;;;;;;;7.42;100.00;99407.09;1041599;28;19921;-77
2022/09/28 00:28:19;;;;;;;;;;;;;;;7.51;100.00;99404.09;1041002;28;20525;-77
2022/09/28 00:28:51;;;;;;;;;;;;;;;7.41;100.00;99405.50;1044351;28;20275;-77
2022/09/28 00:29:25;;;;;;;;;;;;;;;7.40;100.00;99408.38;1037239;28;19927;-77
2022/09/28 00:29:57;;;;;;;;;;;;;;;7.31;100.00;99410.53;1042328;28;19928;-77
2022/09/28 00:30:28;;;;;;;;;;;;;;;7.33;100.00;99407.66;1044146;28;20348;-77
2022/09/28 00:31:00;;;;;;;;;;;;;;;7.30;100.00;99403.63;1043781;28;19921;-77
2022/09/28 00:31:32;;;;;;;;;;;;;;;7.34;100.00;99401.31;1038229;28;20120;-77
2022/09/28 00:32:05;;;;;;;;;;;;;;;7.33;100.00;99403.16;1041217;28;20414;-77
2022/09/28 00:32:39;;;;;;;;;;;;;;;7.39;100.00;99412.03;1040073;28;19998;-77
2022/09/28 00:33:13;;;;;;;;;;;;;;;7.43;100.00;99405.25;1036519;28;20041;-77
2022/09/28 00:33:44;;;;;;;;;;;;;;;7.36;100.00;99408.00;1040181;28;19927;-77
2022/09/28 00:34:16;;;;;;;;;;;;;;;7.40;100.00;99403.88;1036960;28;20021;-77
2022/09/28 00:34:48;;;;;;;;;;;;;;;7.37;100.00;99408.81;1037241;28;19942;-77
2022/09/28 00:35:19;;;;;;;;;;;;;;;7.35;100.00;99410.88;1038228;28;19921;-77
2022/09/28 00:35:55;;;;;;;;;;;;;;;7.33;100.00;99407.66;1039655;28;20303;-77
2022/09/28 00:36:27;;;;;;;;;;;;;;;7.30;100.00;99408.13;1044429;28;19927;-77
2022/09/28 00:36:58;;;;;;;;;;;;;;;7.39;100.00;99406.72;1046749;28;19973;-77
2022/09/28 00:37:30;;;;;;;;;;;;;;;7.36;100.00;99407.19;1042276;28;20433;-77
2022/09/28 00:38:02;;;;;;;;;;;;;;;7.37;100.00;99404.31;1036384;28;19921;-77
2022/09/28 00:38:34;;;;;;;;;;;;;;;7.33;100.00;99405.81;1035392;28;19928;-77
2022/09/28 00:39:06;;;;;;;;;;;;;;;7.36;100.00;99408.00;1038660;28;19921;-77
2022/09/28 00:39:40;;;;;;;;;;;;;;;7.35;100.00;99411.69;1038704;28;19921;-76
2022/09/28 00:40:12;;;;;;;;;;;;;;;7.34;100.00;99409.28;1041052;28;19921;-77
2022/09/28 00:40:43;;;;;;;;;;;;;;;7.37;100.00;99408.81;1048384;28;19927;-77
2022/09/28 00:41:16;;;;;;;;;;;;;;;7.39;100.00;99406.72;1046209;28;19921;-76
2022/09/28 00:41:47;;;;;;;;;;;;;;;7.37;100.00;99409.63;1046401;28;19928;-77
2022/09/28 00:42:22;;;;;;;;;;;;;;;7.36;100.00;99407.19;1047518;28;20386;-77
2022/09/28 00:42:54;;;;;;;;;;;;;;;7.37;100.00;99404.31;1033091;28;19921;-77
2022/09/28 00:43:26;;;;;;;;;;;;;;;7.35;100.00;99405.59;1036088;28;20125;-77
2022/09/28 00:44:16;;;;;;;;;;;;;;;7.35;100.00;99405.59;1044678;28;19964;-77
2022/09/28 00:44:49;;;;;;;;;;;;;;;7.34;100.00;99409.28;1047045;28;19920;-79
2022/09/28 00:45:21;;;;;;;;;;;;;;;7.33;100.00;99408.47;1053345;28;19943;-79
2022/09/28 00:45:57;;;;;;;;;;;;;;;7.35;100.00;99410.88;1050129;28;19920;-77
2022/09/28 00:46:32;;;;;;;;;;;;;;;7.33;100.00;99407.66;1046473;28;19924;-77
2022/09/28 00:47:06;;;;;;;;;;;;;;;7.35;100.00;99403.75;1044259;28;19944;-77
2022/09/28 00:47:50;;;;;;;;;;;;;;;7.34;100.00;99401.31;1036597;28;19972;-77
2022/09/28 00:48:22;;;;;;;;;;;;;;;7.31;100.00;99404.44;1039404;28;19921;-77
2022/09/28 00:48:56;;;;;;;;;;;;;;;7.29;100.00;99406.50;1041753;28;20457;-77
2022/09/28 00:49:31;;;;;;;;;;;;;;;7.32;100.00;99398.91;1042902;28;19928;-77
2022/09/28 00:50:14;;;;;;;;;;;;;;;7.31;100.00;99399.16;1041009;28;19957;-77
2022/09/28 00:50:45;;;;;;;;;;;;;;;7.39;100.00;99402.25;1043056;28;19921;-77
2022/09/28 00:51:18;;;;;;;;;;;;;;;7.41;100.00;99394.09;1045103;28;19975;-77
2022/09/28 00:51:49;;;;;;;;;;;;;;;7.43;100.00;99397.31;1039989;28;20395;-77
2022/09/28 00:52:26;;;;;;;;;;;;;;;7.42;100.00;99395.72;1039864;28;19936;-77
2022/09/28 00:53:01;;;;;;;;;;;;;;;7.39;100.00;99404.09;1039833;28;19960;-77
2022/09/28 00:53:33;;;;;;;;;;;;;;;7.42;100.00;99406.31;1046866;28;19927;-77
2022/09/28 00:54:05;;;;;;;;;;;;;;;7.43;100.00;99402.63;1041603;28;19920;-77
2022/09/28 00:54:36;;;;;;;;;;;;;;;7.42;100.00;99398.34;1040668;28;19928;-77
2022/09/28 00:55:10;;;;;;;;;;;;;;;7.43;100.00;99406.06;1040283;28;20425;-77
2022/09/28 00:55:44;;;;;;;;;;;;;;;7.47;100.00;99398.47;1041531;28;19929;-77
2022/09/28 00:56:17;;;;;;;;;;;;;;;7.44;100.00;99399.72;1036387;28;19960;-77
2022/09/28 00:56:49;;;;;;;;;;;;;;;7.43;100.00;99405.25;1042329;28;19929;-77
2022/09/28 00:57:21;;;;;;;;;;;;;;;7.42;100.00;99396.50;1039863;28;19936;-77
2022/09/28 00:57:54;;;;;;;;;;;;;;;7.44;100.00;99396.28;1034135;28;19962;-77
2022/09/28 00:58:27;;;;;;;;;;;;;;;7.53;100.00;99396.72;1044602;28;19921;-77
2022/09/28 00:58:59;;;;;;;;;;;;;;;7.46;100.00;99396.84;1043818;28;19950;-77
2022/09/28 00:59:31;;;;;;;;;;;;;;;7.47;100.00;99393.16;1044746;28;19921;-77
2022/09/28 01:00:03;;;;;;;;;;;;;;;7.58;100.00;99405.59;1037943;28;19944;-77
2022/09/28 01:00:34;;;;;;;;;;;;;;;7.53;100.00;99396.72;1033420;28;20076;-77
2022/09/28 01:01:06;;;;;;;;;;;;;;;7.50;100.00;99395.34;1043534;28;20405;-77
2022/09/28 01:01:40;;;;;;;;;;;;;;;7.48;100.00;99402.72;1039106;28;20000;-77
2022/09/28 01:02:11;;;;;;;;;;;;;;;7.46;100.00;99394.19;1045956;28;19920;-77
2022/09/28 01:02:43;;;;;;;;;;;;;;;7.47;100.00;99397.66;1039227;28;20367;-77
2022/09/28 01:03:15;;;;;;;;;;;;;;;7.46;100.00;99393.41;1042220;28;19937;-77
2022/09/28 01:03:47;;;;;;;;;;;;;;;7.42;100.00;99396.50;1041050;28;19921;-77
2022/09/28 01:04:19;;;;;;;;;;;;;;;7.47;100.00;99398.47;1032609;28;20092;-77
2022/09/28 01:04:51;;;;;;;;;;;;;;;7.50;100.00;99398.00;1034159;28;19922;-77
2022/09/28 01:05:23;;;;;;;;;;;;;;;7.52;100.00;99400.41;1038748;28;20655;-77
2022/09/28 01:05:55;;;;;;;;;;;;;;;7.60;100.00;99392.09;1048043;28;19920;-77
2022/09/28 01:06:27;;;;;;;;;;;;;;;7.56;100.00;99398.91;1051888;28;19951;-77
2022/09/28 01:06:59;;;;;;;;;;;;;;;7.53;100.00;99394.88;1047441;28;20007;-77
2022/09/28 01:07:30;;;;;;;;;;;;;;;7.59;100.00;99401.09;1042037;28;19921;-77
2022/09/28 01:08:02;;;;;;;;;;;;;;;7.55;100.00;99399.94;1032419;28;19945;-77
2022/09/28 01:08:34;;;;;;;;;;;;;;;7.52;100.00;99395.91;1035086;28;19922;-77
2022/09/28 01:09:06;;;;;;;;;;;;;;;7.53;100.00;99396.72;1036719;28;19921;-77
2022/09/28 01:09:38;;;;;;;;;;;;;;;7.55;100.00;99395.44;1032713;28;19921;-77
2022/09/28 01:10:10;;;;;;;;;;;;;;;7.60;100.00;99398.22;1031821;28;20335;-77
2022/09/28 01:10:42;;;;;;;;;;;;;;;7.56;100.00;99397.06;1038545;28;19928;-77
2022/09/28 01:11:14;;;;;;;;;;;;;;;7.50;100.00;99392.69;1033222;28;19929;-77
2022/09/28 01:11:45;;;;;;;;;;;;;;;7.51;100.00;99401.44;1040909;28;19928;-77
2022/09/28 01:12:16;;;;;;;;;;;;;;;7.48;100.00;99394.78;1044481;28;19920;-77
2022/09/28 01:12:49;;;;;;;;;;;;;;;7.49;100.00;99392.94;1037420;28;19921;-77
2022/09/28 01:13:20;;;;;;;;;;;;;;;7.41;100.00;99394.09;1040149;28;19928;-77
2022/09/28 01:13:53;;;;;;;;;;;;;;;7.44;100.00;99393.63;1033279;28;20367;-77
2022/09/28 01:14:24;;;;;;;;;;;;;;;7.50;100.00;99392.69;1032342;28;19929;-77
2022/09/28 01:14:56;;;;;;;;;;;;;;;7.57;100.00;99392.56;1035569;28;19968;-77
2022/09/28 01:15:28;;;;;;;;;;;;;;;7.51;100.00;99389.00;1033310;28;19929;-77
2022/09/28 01:16:20;;;;;;;;;;;;;;;7.51;100.00;99394.31;1033583;28;20012;-77
2022/09/28 01:16:53;;;;;;;;;;;;;;;7.59;100.00;99391.28;1043160;28;19920;-77
2022/09/28 01:17:35;;;;;;;;;;;;;;;7.52;100.00;99393.28;1043275;28;20432;-77
2022/09/28 01:18:10;;;;;;;;;;;;;;;7.59;100.00;99396.59;1039249;28;19928;-77
2022/09/28 01:23:20;;;;;;;;;;;;;;;7.53;100.00;99394.88;1041255;28;19952;-79
2022/09/28 01:24:00;;;;;;;;;;;;;;;7.55;100.00;99394.66;1044191;28;20043;-77
2022/09/28 01:24:57;;;;;;;;;;;;;;;7.56;100.00;99397.06;1051571;28;19931;-77
2022/09/28 01:25:44;;;;;;;;;;;;;;;7.52;100.00;99401.22;1040854;28;19932;-79
2022/09/28 01:26:20;;;;;;;;;;;;;;;7.49;100.00;99396.38;1036569;28;19937;-77
2022/09/28 01:26:55;;;;;;;;;;;;;;;7.46;100.00;99396.84;1040839;28;19921;-77
2022/09/28 01:27:56;;;;;;;;;;;;;;;7.45;100.00;99395.25;1046091;28;19920;-77
2022/09/28 01:28:27;;;;;;;;;;;;;;;7.42;100.00;99395.72;1046621;28;20445;-77
2022/09/28 01:29:09;;;;;;;;;;;;;;;7.44;100.00;99393.63;1049443;28;19920;-80
2022/09/28 01:29:56;;;;;;;;;;;;;;;7.36;100.00;99396.59;1039952;28;20015;-80
2022/09/28 01:30:27;;;;;;;;;;;;;;;7.49;100.00;99390.28;1040181;28;20044;-80
2022/09/28 01:31:08;;;;;;;;;;;;;;;7.50;100.00;99397.19;1036239;28;19921;-80
2022/09/28 01:31:40;;;;;;;;;;;;;;;7.47;100.00;99395.00;1040893;28;19921;-80
2022/09/28 01:32:27;;;;;;;;;;;;;;;7.52;100.00;99390.63;1044200;28;19931;-80
2022/09/28 01:33:05;;;;;;;;;;;;;;;7.56;100.00;99394.41;1040420;28;20016;-80
2022/09/28 01:33:57;;;;;;;;;;;;;;;7.53;100.00;99392.22;1043513;28;19928;-82
2022/09/28 01:34:40;;;;;;;;;;;;;;;7.50;100.00;99391.91;1044403;28;20009;-80
2022/09/28 01:35:30;;;;;;;;;;;;;;;7.51;100.00;99391.66;1040035;28;19921;-80
2022/09/28 01:36:03;;;;;;;;;;;;;;;7.47;100.00;99393.16;1035919;28;20181;-80
2022/09/28 01:36:37;;;;;;;;;;;;;;;7.52;100.00;99395.13;1031796;28;19922;-80
2022/09/28 01:37:08;;;;;;;;;;;;;;;7.53;100.00;99391.44;1039432;28;20098;-80
2022/09/28 01:37:43;;;;;;;;;;;;;;;7.49;100.00;99391.09;1039562;28;19953;-80
2022/09/28 01:38:30;;;;;;;;;;;;;;;7.48;100.00;99400.06;1045573;28;20397;-80
2022/09/28 01:39:06;;;;;;;;;;;;;;;7.48;100.00;99393.97;1035856;28;20477;-81
2022/09/28 01:39:39;;;;;;;;;;;;;;;7.50;100.00;99403.28;1035375;28;19925;-80
2022/09/28 01:40:10;;;;;;;;;;;;;;;7.47;100.00;99395.81;1031937;28;19929;-80
2022/09/28 01:40:42;;;;;;;;;;;;;;;7.54;100.00;99393.03;1031884;28;19929;-80
2022/09/28 01:41:16;;;;;;;;;;;;;;;7.45;100.00;99392.59;1040056;28;19921;-81
2022/09/28 01:41:50;;;;;;;;;;;;;;;7.49;100.00;99391.09;1035734;28;20430;-80
2022/09/28 01:42:24;;;;;;;;;;;;;;;7.49;100.00;99392.94;1032184;28;20429;-80
2022/09/28 01:43:00;;;;;;;;;;;;;;;7.46;100.00;99391.56;1032911;28;20403;-80
2022/09/28 01:43:32;;;;;;;;;;;;;;;7.54;100.00;99398.34;1039990;28;19921;-80
2022/09/28 01:44:04;;;;;;;;;;;;;;;7.53;100.00;99392.22;1048050;28;20313;-80
2022/09/28 01:44:38;;;;;;;;;;;;;;;7.49;100.00;99396.38;1036034;28;19922;-81
2022/09/28 01:45:14;;;;;;;;;;;;;;;7.42;100.00;99393.88;1032208;28;19921;-80
2022/09/28 01:46:04;;;;;;;;;;;;;;;7.49;100.00;99385.78;1039804;28;19921;-80
2022/09/28 01:46:40;;;;;;;;;;;;;;;7.46;100.00;99388.91;1039822;28;19927;-80
2022/09/28 01:47:12;;;;;;;;;;;;;;;7.45;100.00;99389.94;1043494;28;19936;-80
2022/09/28 01:47:43;;;;;;;;;;;;;;;7.42;100.00;99391.22;1032791;28;20010;-80
2022/09/28 01:48:16;;;;;;;;;;;;;;;7.49;100.00;99391.09;1031801;28;19932;-80
2022/09/28 01:48:55;;;;;;;;;;;;;;;7.44;100.00;99396.28;1031671;28;20396;-80
2022/09/28 01:49:29;;;;;;;;;;;;;;;7.44;100.00;99393.63;1035916;28;19921;-81
2022/09/28 01:50:06;;;;;;;;;;;;;;;7.27;100.00;99396.16;1031556;28;19948;-80
2022/09/28 01:50:38;;;;;;;;;;;;;;;7.35;100.00;99397.63;1031768;28;20419;-80
2022/09/28 01:51:11;;;;;;;;;;;;;;;7.37;100.00;99387.63;1029324;28;19965;-80
2022/09/28 01:52:00;;;;;;;;;;;;;;;7.38;100.00;99389.22;1029990;28;20391;-80
2022/09/28 01:52:35;;;;;;;;;;;;;;;7.28;100.00;99399.59;1032296;28;19929;-80
2022/09/28 01:53:10;;;;;;;;;;;;;;;7.31;100.00;99393.84;1031468;28;19921;-80
2022/09/28 01:53:44;;;;;;;;;;;;;;;7.31;100.00;99391.19;1039789;28;20375;-80
2022/09/28 01:54:22;;;;;;;;;;;;;;;7.30;100.00;99392.22;1040005;28;20272;-80
2022/09/28 01:54:56;;;;;;;;;;;;;;;7.31;100.00;99389.34;1035856;28;20005;-81
2022/09/28 01:55:29;;;;;;;;;;;;;;;7.40;100.00;99390.63;1035468;28;19928;-80
2022/09/28 01:56:02;;;;;;;;;;;;;;;7.30;100.00;99382.44;1035982;28;19921;-80
2022/09/28 01:56:38;;;;;;;;;;;;;;;7.33;100.00;99391.78;1041243;28;19921;-80
2022/09/28 01:57:14;;;;;;;;;;;;;;;7.28;100.00;99384.53;1038962;28;19922;-80
2022/09/28 01:57:47;;;;;;;;;;;;;;;7.29;100.00;99385.31;1041430;28;19921;-80
2022/09/28 01:58:21;;;;;;;;;;;;;;;7.27;100.00;99382.91;1035594;28;19925;-80
2022/09/28 01:58:55;;;;;;;;;;;;;;;7.24;100.00;99387.88;1035809;28;19936;-80
2022/09/28 01:59:27;;;;;;;;;;;;;;;7.28;100.00;99389.00;1033348;28;19921;-80
2022/09/28 02:00:04;;;;;;;;;;;;;;;7.30;100.00;99394.88;1039944;28;19928;-80
2022/09/28 02:00:46;;;;;;;;;;;;;;;7.27;100.00;99382.09;1042551;28;19921;-80
2022/09/28 02:01:21;;;;;;;;;;;;;;;7.25;100.00;99389.47;1038899;28;20011;-80
2022/09/28 02:01:57;;;;;;;;;;;;;;;7.31;100.00;99383.25;1035917;28;19922;-80
2022/09/28 02:02:33;;;;;;;;;;;;;;;7.27;100.00;99387.41;1034660;28;19980;-80
2022/09/28 02:03:09;;;;;;;;;;;;;;;7.27;100.00;99390.03;1029497;28;19922;-80
2022/09/28 02:03:55;;;;;;;;;;;;;;;7.28;100.00;99383.72;1027469;28;20070;-80
2022/09/28 02:04:35;;;;;;;;;;;;;;;7.35;100.00;99381.75;1036126;28;19922;-80
2022/09/28 02:05:30;;;;;;;;;;;;;;;7.30;100.00;99390.38;1035929;28;19922;-80
2022/09/28 02:06:12;;;;;;;;;;;;;;;7.25;100.00;99382.34;1033165;28;19980;-80
2022/09/28 02:06:46;;;;;;;;;;;;;;;7.22;100.00;99387.28;1038032;28;20445;-80
2022/09/28 02:07:22;;;;;;;;;;;;;;;7.20;100.00;99386.72;1040010;28;19921;-80
2022/09/28 02:07:56;;;;;;;;;;;;;;;7.12;100.00;99391.31;1038084;28;20259;-80
2022/09/28 02:08:28;;;;;;;;;;;;;;;7.11;100.00;99389.69;1033956;28;19928;-80
2022/09/28 02:09:06;;;;;;;;;;;;;;;7.11;100.00;99388.88;1032137;28;19929;-80
2022/09/28 02:09:45;;;;;;;;;;;;;;;7.09;100.00;99381.16;1037747;28;19921;-81
2022/09/28 02:10:18;;;;;;;;;;;;;;;7.11;100.00;99384.38;1039870;28;20570;-80
2022/09/28 02:10:55;;;;;;;;;;;;;;;7.10;100.00;99389.91;1036181;28;19921;-80
2022/09/28 02:11:26;;;;;;;;;;;;;;;7.10;100.00;99381.97;1033884;28;19921;-81
2022/09/28 02:11:58;;;;;;;;;;;;;;;7.06;100.00;99381.63;1032848;28;19922;-80
2022/09/28 02:12:34;;;;;;;;;;;;;;;7.07;100.00;99385.06;1035014;28;19921;-80
2022/09/28 02:13:09;;;;;;;;;;;;;;;7.11;100.00;99384.38;1031751;28;19922;-80
2022/09/28 02:13:43;;;;;;;;;;;;;;;7.11;100.00;99379.09;1033029;28;19929;-80
2022/09/28 02:14:16;;;;;;;;;;;;;;;7.21;100.00;99383.03;1029874;28;20383;-80
2022/09/28 02:14:51;;;;;;;;;;;;;;;7.18;100.00;99383.50;1037095;28;20298;-80
2022/09/28 02:15:29;;;;;;;;;;;;;;;7.17;100.00;99385.34;1037131;28;19933;-80
2022/09/28 02:16:06;;;;;;;;;;;;;;;7.09;100.00;99378.50;1042072;28;20010;-80
2022/09/28 02:16:41;;;;;;;;;;;;;;;7.02;100.00;99377.81;1037151;28;19925;-80
2022/09/28 02:17:14;;;;;;;;;;;;;;;7.11;100.00;99380.94;1034141;28;20008;-80
2022/09/28 02:17:49;;;;;;;;;;;;;;;7.09;100.00;99381.16;1037801;28;19921;-80
2022/09/28 02:18:21;;;;;;;;;;;;;;;7.13;100.00;99381.53;1037466;28;19929;-80
2022/09/28 02:18:52;;;;;;;;;;;;;;;7.09;100.00;99381.16;1041261;28;19921;-80
2022/09/28 02:19:24;;;;;;;;;;;;;;;7.01;100.00;99381.50;1040223;28;20375;-80
2022/09/28 02:19:56;;;;;;;;;;;;;;;6.97;100.00;99383.00;1036463;28;19944;-80
2022/09/28 02:20:28;;;;;;;;;;;;;;;6.92;100.00;99385.53;1035613;28;19929;-80
2022/09/28 02:21:03;;;;;;;;;;;;;;;6.91;100.00;99381.28;1036201;28;19921;-80
2022/09/28 02:21:39;;;;;;;;;;;;;;;6.89;100.00;99375.41;1036044;28;19921;-81
2022/09/28 02:22:22;;;;;;;;;;;;;;;6.93;100.00;99384.50;1035434;28;19973;-80
2022/09/28 02:22:55;;;;;;;;;;;;;;;7.01;100.00;99378.84;1043111;28;19921;-80
2022/09/28 02:23:28;;;;;;;;;;;;;;;6.96;100.00;99381.38;1038760;28;19921;-80
2022/09/28 02:24:01;;;;;;;;;;;;;;;6.94;100.00;99383.47;1040133;28;19920;-80
2022/09/28 02:24:34;;;;;;;;;;;;;;;6.96;100.00;99386.69;1039908;28;20357;-80
2022/09/28 02:25:10;;;;;;;;;;;;;;;6.98;100.00;99384.63;1036566;28;19973;-80
2022/09/28 02:25:44;;;;;;;;;;;;;;;6.90;100.00;99387.59;1041824;28;20516;-80
2022/09/28 02:26:16;;;;;;;;;;;;;;;6.86;100.00;99386.44;1038343;28;20290;-80
2022/09/28 02:26:48;;;;;;;;;;;;;;;6.84;100.00;99383.19;1041315;28;20437;-80
2022/09/28 02:27:28;;;;;;;;;;;;;;;6.85;100.00;99384.00;1036011;28;19992;-80
2022/09/28 02:28:01;;;;;;;;;;;;;;;6.89;100.00;99387.84;1033656;28;20418;-80
2022/09/28 02:28:32;;;;;;;;;;;;;;;6.89;100.00;99379.91;1034069;28;20330;-80
2022/09/28 02:29:04;;;;;;;;;;;;;;;6.87;100.00;99388.06;1037348;28;19928;-79
2022/09/28 02:29:36;;;;;;;;;;;;;;;6.86;100.00;99390.94;1036364;28;19929;-80
2022/09/28 02:30:08;;;;;;;;;;;;;;;6.88;100.00;99384.38;1039207;28;19928;-80
2022/09/28 02:30:40;;;;;;;;;;;;;;;6.83;100.00;99386.88;1039280;28;20307;-80
2022/09/28 02:31:12;;;;;;;;;;;;;;;6.77;100.00;99385.16;1039739;28;19928;-80
2022/09/28 02:31:43;;;;;;;;;;;;;;;6.80;100.00;99387.34;1040154;28;19952;-80
2022/09/28 02:32:15;;;;;;;;;;;;;;;6.80;100.00;99387.34;1035639;28;19928;-80
2022/09/28 02:32:48;;;;;;;;;;;;;;;6.86;100.00;99381.16;1035311;28;19928;-80
2022/09/28 02:33:20;;;;;;;;;;;;;;;6.81;100.00;99383.66;1042750;28;19921;-80
2022/09/28 02:33:52;;;;;;;;;;;;;;;6.76;100.00;99383.53;1039777;28;19921;-80
2022/09/28 02:34:23;;;;;;;;;;;;;;;6.78;100.00;99381.47;1044610;28;19921;-80
2022/09/28 02:34:55;;;;;;;;;;;;;;;6.77;100.00;99382.50;1044095;28;19920;-80
2022/09/28 02:35:26;;;;;;;;;;;;;;;6.79;100.00;99380.44;1038099;28;19921;-80
2022/09/28 02:35:58;;;;;;;;;;;;;;;6.74;100.00;99375.03;1035474;28;19921;-80
2022/09/28 02:36:30;;;;;;;;;;;;;;;6.69;100.00;99390.78;1032449;28;20406;-80
2022/09/28 02:37:02;;;;;;;;;;;;;;;6.68;100.00;99383.88;1044184;28;19924;-80
2022/09/28 02:37:33;;;;;;;;;;;;;;;6.66;100.00;99384.09;1039369;28;19928;-80
2022/09/28 02:38:05;;;;;;;;;;;;;;;6.63;100.00;99386.38;1040436;28;20003;-80
2022/09/28 02:38:37;;;;;;;;;;;;;;;6.69;100.00;99385.47;1033474;28;20324;-80
2022/09/28 02:39:12;;;;;;;;;;;;;;;6.68;100.00;99381.22;1039498;28;20377;-80
2022/09/28 02:39:44;;;;;;;;;;;;;;;6.68;100.00;99378.56;1047857;28;19951;-80
2022/09/28 02:40:17;;;;;;;;;;;;;;;6.64;100.00;99382.72;1045354;28;19946;-80
2022/09/28 02:40:52;;;;;;;;;;;;;;;6.69;100.00;99380.19;1043716;28;20045;-80
2022/09/28 02:41:23;;;;;;;;;;;;;;;6.72;100.00;99383.19;1031646;28;20377;-80
2022/09/28 02:42:06;;;;;;;;;;;;;;;6.71;100.00;99386.06;1035427;28;20395;-80
2022/09/28 02:42:43;;;;;;;;;;;;;;;6.71;100.00;99384.22;1038167;28;19921;-80
2022/09/28 02:43:25;;;;;;;;;;;;;;;6.77;100.00;99385.16;1042530;28;20434;-80
2022/09/28 02:44:07;;;;;;;;;;;;;;;6.71;100.00;99384.22;1035641;28;19921;-80
2022/09/28 02:44:59;;;;;;;;;;;;;;;6.66;100.00;99385.94;1035367;28;19925;-80
2022/09/28 02:45:48;;;;;;;;;;;;;;;6.76;100.00;99391.47;1027791;28;19922;-80
2022/09/28 02:46:27;;;;;;;;;;;;;;;6.71;100.00;99386.06;1042357;28;20433;-80
2022/09/28 02:47:16;;;;;;;;;;;;;;;6.72;100.00;99390.31;1043992;28;19928;-80
2022/09/28 02:47:52;;;;;;;;;;;;;;;6.69;100.00;99385.47;1048265;28;20011;-80
2022/09/28 02:48:23;;;;;;;;;;;;;;;6.72;100.00;99385.03;1039695;28;20322;-80
2022/09/28 02:49:33;;;;;;;;;;;;;;;6.74;100.00;99389.06;1036007;28;19972;-79
2022/09/28 02:50:11;;;;;;;;;;;;;;;6.74;100.00;99393.53;1033663;28;20273;-79
2022/09/28 02:51:02;;;;;;;;;;;;;;;6.71;100.00;99394.00;1037085;28;19976;-80
2022/09/28 02:51:36;;;;;;;;;;;;;;;6.69;100.00;99390.78;1043066;28;19972;-80
2022/09/28 02:52:31;;;;;;;;;;;;;;;6.74;100.00;99383.75;1039649;28;20306;-80
2022/09/28 02:53:06;;;;;;;;;;;;;;;6.69;100.00;99383.63;1035528;28;19968;-80
2022/09/28 02:53:37;;;;;;;;;;;;;;;6.67;100.00;99387.53;1031723;28;20521;-80
2022/09/28 02:54:22;;;;;;;;;;;;;;;6.69;100.00;99390.78;1031609;28;19921;-80
2022/09/28 02:54:57;;;;;;;;;;;;;;;6.68;100.00;99389.16;1034701;28;19930;-77
2022/09/28 02:55:35;;;;;;;;;;;;;;;6.66;100.00;99380.66;1034906;28;19925;-80
2022/09/28 02:56:15;;;;;;;;;;;;;;;6.69;100.00;99390.78;1035394;28;20383;-80
2022/09/28 02:56:46;;;;;;;;;;;;;;;6.74;100.00;99388.25;1034435;28;19937;-80
2022/09/28 02:57:30;;;;;;;;;;;;;;;6.72;100.00;99383.19;1033334;28;19972;-80
2022/09/28 02:58:04;;;;;;;;;;;;;;;6.71;100.00;99384.22;1031906;28;20533;-80
2022/09/28 02:58:38;;;;;;;;;;;;;;;6.72;100.00;99383.19;1033771;28;19985;-80
2022/09/28 02:59:23;;;;;;;;;;;;;;;6.76;100.00;99391.47;1042655;28;19986;-80
2022/09/28 03:00:00;;;;;;;;;;;;;;;6.78;100.00;99389.41;1042530;28;19921;-80
2022/09/28 03:00:34;;;;;;;;;;;;;;;6.71;100.00;99391.34;1044236;28;19924;-80
2022/09/28 03:01:14;;;;;;;;;;;;;;;6.72;100.00;99390.31;1042518;28;19960;-80
2022/09/28 03:01:46;;;;;;;;;;;;;;;6.72;100.00;99390.31;1044142;28;20437;-80
2022/09/28 03:02:20;;;;;;;;;;;;;;;6.71;100.00;99394.00;1039584;28;20035;-80
2022/09/28 03:02:57;;;;;;;;;;;;;;;6.70;100.00;99384.44;1033237;28;20311;-80
2022/09/28 03:03:49;;;;;;;;;;;;;;;6.74;100.00;99396.19;1032990;28;19921;-80
2022/09/28 03:04:23;;;;;;;;;;;;;;;6.73;100.00;99397.22;1039721;28;19928;-80
2022/09/28 03:04:57;;;;;;;;;;;;;;;6.68;100.00;99397.09;1048377;28;19927;-80
2022/09/28 03:05:35;;;;;;;;;;;;;;;6.69;100.00;99390.78;1047850;28;19920;-80
2022/09/28 03:06:09;;;;;;;;;;;;;;;6.64;100.00;99394.09;1043820;28;19920;-80
2022/09/28 03:06:52;;;;;;;;;;;;;;;6.64;100.00;99396.75;1039457;28;19928;-80
2022/09/28 03:07:25;;;;;;;;;;;;;;;6.68;100.00;99405.03;1038051;28;20008;-81
2022/09/28 03:07:57;;;;;;;;;;;;;;;6.55;100.00;99399.91;1039217;28;19921;-80